Time;durP1;ratioP1;P1;durP2;ratioP2;P2;SDS_P1;SDS_P2;PMS_P1;PMS_P2;Temp;Humidity;BMP_temperature;BMP_pressure;BME280_temperature;BME280_humidity;BME280_pressure;Samples;Min_cycle;Max_cycle;Signal;HPM_P1;HPM_P2
2022/03/06 00:01:09;;;;;;;17.27;9.43;;;;;;;;;;5040844;28;20759;-61
2022/03/06 00:03:37;;;;;;;21.92;9.48;;;;;;;;;;5040309;28;20062;-61
2022/03/06 00:06:03;;;;;;;18.40;9.02;;;;;;;;;;5040374;28;20033;-61
2022/03/06 00:08:28;;;;;;;19.55;9.02;;;;;;;;;;5042707;28;20197;-61
2022/03/06 00:10:53;;;;;;;23.08;8.55;;;;;;;;;;5041446;28;20028;-61
2022/03/06 00:13:19;;;;;;;13.82;8.23;;;;;;;;;;5041085;28;20029;-61
2022/03/06 00:15:45;;;;;;;17.00;8.40;;;;;;;;;;5041085;28;20033;-61
2022/03/06 00:18:13;;;;;;;18.05;9.48;;;;;;;;;;5041359;28;20030;-61
2022/03/06 00:20:44;;;;;;;18.73;8.43;;;;;;;;;;5031342;28;20492;-62
2022/03/06 00:23:11;;;;;;;17.92;8.07;;;;;;;;;;5036120;28;20075;-61
2022/03/06 00:25:40;;;;;;;13.82;7.35;;;;;;;;;;5039819;28;21041;-60
2022/03/06 00:28:06;;;;;;;14.23;7.13;;;;;;;;;;5039176;28;20021;-60
2022/03/06 00:30:34;;;;;;;12.48;6.03;;;;;;;;;;5039716;28;20032;-61
2022/03/06 00:33:06;;;;;;;11.57;6.25;;;;;;;;;;5037675;28;20034;-61
2022/03/06 00:35:34;;;;;;;11.88;5.80;;;;;;;;;;5040826;28;20719;-60
2022/03/06 00:37:59;;;;;;;9.00;5.55;;;;;;;;;;5010796;28;20037;-60
2022/03/06 00:40:30;;;;;;;9.70;5.45;;;;;;;;;;5042072;28;20604;-61
2022/03/06 00:42:58;;;;;;;12.80;5.78;;;;;;;;;;5024014;28;20040;-61
2022/03/06 00:45:25;;;;;;;12.63;6.30;;;;;;;;;;5024435;28;20040;-62
2022/03/06 00:47:53;;;;;;;7.60;5.00;;;;;;;;;;5040665;28;20043;-61
2022/03/06 00:50:19;;;;;;;11.25;5.45;;;;;;;;;;5030052;28;20048;-61
2022/03/06 00:52:44;;;;;;;11.60;5.15;;;;;;;;;;5041208;28;20037;-61
2022/03/06 00:55:17;;;;;;;10.23;5.65;;;;;;;;;;5039441;28;20128;-61
2022/03/06 00:57:45;;;;;;;11.52;5.10;;;;;;;;;;5027372;28;20547;-61
2022/03/06 01:00:10;;;;;;;9.85;5.32;;;;;;;;;;5022714;28;20041;-61
2022/03/06 01:02:39;;;;;;;9.63;4.45;;;;;;;;;;5038122;28;20076;-61
2022/03/06 01:05:09;;;;;;;12.13;5.50;;;;;;;;;;5040345;28;20060;-62
2022/03/06 01:07:37;;;;;;;10.45;4.82;;;;;;;;;;5039248;28;20091;-61
2022/03/06 01:10:09;;;;;;;7.47;4.05;;;;;;;;;;5040037;28;20052;-61
2022/03/06 01:12:34;;;;;;;9.98;5.07;;;;;;;;;;5039792;28;20042;-61
2022/03/06 01:15:02;;;;;;;8.07;4.22;;;;;;;;;;5040310;28;20016;-60
2022/03/06 01:17:32;;;;;;;11.15;4.25;;;;;;;;;;5024035;28;20087;-61
2022/03/06 01:19:57;;;;;;;11.02;5.40;;;;;;;;;;5039697;28;20087;-61
2022/03/06 01:22:25;;;;;;;8.60;4.43;;;;;;;;;;5039257;28;20112;-61
2022/03/06 01:24:53;;;;;;;8.82;4.72;;;;;;;;;;5044293;28;20067;-61
2022/03/06 01:27:18;;;;;;;10.85;4.68;;;;;;;;;;5038733;28;21818;-61
2022/03/06 01:29:44;;;;;;;6.65;3.38;;;;;;;;;;5039967;28;20415;-61
2022/03/06 01:32:12;;;;;;;9.63;4.57;;;;;;;;;;5024111;28;20036;-61
2022/03/06 01:34:42;;;;;;;11.27;4.53;;;;;;;;;;5038883;28;20086;-61
2022/03/06 01:37:08;;;;;;;10.68;4.78;;;;;;;;;;5039330;28;20106;-62
2022/03/06 01:39:34;;;;;;;7.88;4.03;;;;;;;;;;5040037;28;20024;-61
2022/03/06 01:41:59;;;;;;;10.77;4.43;;;;;;;;;;5022406;28;20083;-61
2022/03/06 01:44:25;;;;;;;7.43;3.70;;;;;;;;;;5023880;28;20074;-61
2022/03/06 01:46:51;;;;;;;9.07;4.80;;;;;;;;;;5012079;28;20049;-61
2022/03/06 01:49:17;;;;;;;13.13;4.90;;;;;;;;;;5044997;28;20856;-62
2022/03/06 01:51:43;;;;;;;10.45;4.28;;;;;;;;;;5046465;28;20036;-60
2022/03/06 01:57:47;;;;;;;12.10;3.70;;;;;;;;;;5038067;28;20037;-62
2022/03/06 02:00:17;;;;;;;6.47;4.18;;;;;;;;;;5036343;28;20146;-60
2022/03/06 02:02:42;;;;;;;7.93;4.38;;;;;;;;;;5036882;28;20029;-60
2022/03/06 02:05:11;;;;;;;11.55;3.63;;;;;;;;;;5039403;28;20122;-60
2022/03/06 02:07:37;;;;;;;5.40;3.97;;;;;;;;;;5035945;28;20041;-61
2022/03/06 02:10:03;;;;;;;9.57;2.92;;;;;;;;;;5025213;28;20379;-60
2022/03/06 02:12:29;;;;;;;7.75;3.25;;;;;;;;;;5036450;28;20036;-60
2022/03/06 02:14:59;;;;;;;6.38;3.28;;;;;;;;;;5034816;28;20079;-60
2022/03/06 02:17:28;;;;;;;5.45;3.00;;;;;;;;;;5037422;28;20086;-60
2022/03/06 02:19:57;;;;;;;7.53;3.60;;;;;;;;;;5039060;28;20161;-60
2022/03/06 02:22:26;;;;;;;6.97;3.47;;;;;;;;;;5038483;28;20040;-61
2022/03/06 02:24:55;;;;;;;6.80;3.00;;;;;;;;;;5038428;28;20040;-60
2022/03/06 02:27:26;;;;;;;7.25;3.75;;;;;;;;;;5039659;28;20083;-61
2022/03/06 02:29:54;;;;;;;6.22;3.38;;;;;;;;;;5043435;28;20149;-61
2022/03/06 02:32:21;;;;;;;9.60;2.90;;;;;;;;;;5027229;28;20033;-61
2022/03/06 02:34:47;;;;;;;7.90;3.30;;;;;;;;;;5042692;28;20143;-60
2022/03/06 02:37:16;;;;;;;10.63;2.88;;;;;;;;;;5041406;28;20036;-60
2022/03/06 02:39:43;;;;;;;6.18;3.35;;;;;;;;;;5043798;28;20085;-60
2022/03/06 02:42:09;;;;;;;4.70;3.17;;;;;;;;;;5039347;28;20490;-60
2022/03/06 02:44:34;;;;;;;6.22;3.28;;;;;;;;;;5057648;28;20037;-61
2022/03/06 02:47:02;;;;;;;8.40;3.30;;;;;;;;;;5048024;28;20041;-60
2022/03/06 02:49:30;;;;;;;5.90;3.40;;;;;;;;;;5040912;28;20079;-60
2022/03/06 02:51:58;;;;;;;8.93;3.08;;;;;;;;;;5031171;28;22073;-61
2022/03/06 02:54:24;;;;;;;8.10;3.45;;;;;;;;;;5013068;28;20033;-61
2022/03/06 02:56:49;;;;;;;9.50;3.58;;;;;;;;;;5029560;28;21003;-62
2022/03/06 02:59:18;;;;;;;6.82;2.97;;;;;;;;;;5025235;28;20029;-61
2022/03/06 03:01:46;;;;;;;5.30;3.22;;;;;;;;;;5020225;28;20042;-61
2022/03/06 03:07:51;;;;;;;4.65;2.90;;;;;;;;;;5038597;28;20102;-61
2022/03/06 03:10:19;;;;;;;8.23;3.60;;;;;;;;;;5042194;28;20035;-61
2022/03/06 03:12:45;;;;;;;9.25;4.30;;;;;;;;;;5056190;28;20032;-61
2022/03/06 03:15:11;;;;;;;5.88;3.17;;;;;;;;;;5046985;28;20024;-61
2022/03/06 03:17:39;;;;;;;6.65;3.35;;;;;;;;;;5043462;28;20028;-61
2022/03/06 03:20:07;;;;;;;5.45;3.35;;;;;;;;;;5041500;28;20043;-61
2022/03/06 03:22:32;;;;;;;6.78;3.70;;;;;;;;;;5040814;28;20029;-61
2022/03/06 03:24:58;;;;;;;9.10;3.70;;;;;;;;;;5041340;28;20156;-61
2022/03/06 03:27:26;;;;;;;7.45;3.40;;;;;;;;;;5023181;28;20036;-61
2022/03/06 03:29:52;;;;;;;10.30;4.55;;;;;;;;;;5039434;28;20088;-61
2022/03/06 03:32:18;;;;;;;10.32;4.13;;;;;;;;;;5030873;28;20506;-61
2022/03/06 03:34:46;;;;;;;7.40;3.50;;;;;;;;;;5029407;28;20065;-61
2022/03/06 03:37:12;;;;;;;7.07;3.50;;;;;;;;;;5042674;28;20082;-61
2022/03/06 03:39:37;;;;;;;9.10;3.60;;;;;;;;;;5040021;28;20144;-61
2022/03/06 03:42:03;;;;;;;7.88;3.97;;;;;;;;;;5035776;28;20107;-61
2022/03/06 03:44:28;;;;;;;5.15;3.35;;;;;;;;;;5030635;28;20782;-61
2022/03/06 03:46:54;;;;;;;5.03;3.47;;;;;;;;;;5030058;28;20195;-63
2022/03/06 03:49:22;;;;;;;5.82;3.65;;;;;;;;;;5042294;28;20037;-61
2022/03/06 03:51:47;;;;;;;6.28;3.35;;;;;;;;;;5025940;28;20502;-62
2022/03/06 03:54:14;;;;;;;9.00;3.72;;;;;;;;;;5030711;28;20036;-62
2022/03/06 03:56:42;;;;;;;6.80;3.30;;;;;;;;;;5043330;28;20468;-61
2022/03/06 03:59:08;;;;;;;6.07;3.50;;;;;;;;;;5038853;28;20029;-61
2022/03/06 04:01:34;;;;;;;5.72;3.17;;;;;;;;;;5043365;28;20032;-62
2022/03/06 04:04:04;;;;;;;6.47;3.60;;;;;;;;;;5040376;28;20047;-61
2022/03/06 04:06:34;;;;;;;10.00;3.50;;;;;;;;;;5026500;28;20606;-61
2022/03/06 04:09:00;;;;;;;9.52;4.32;;;;;;;;;;5042650;28;20063;-63
2022/03/06 04:11:26;;;;;;;7.50;3.72;;;;;;;;;;5008454;28;20173;-61
2022/03/06 04:13:51;;;;;;;6.45;3.42;;;;;;;;;;5038341;28;21801;-62
2022/03/06 04:16:19;;;;;;;7.88;3.95;;;;;;;;;;5028071;28;20531;-60
2022/03/06 04:18:44;;;;;;;17.13;3.83;;;;;;;;;;5041293;28;20032;-60
2022/03/06 04:21:10;;;;;;;6.32;3.33;;;;;;;;;;5047002;28;21287;-61
2022/03/06 04:23:37;;;;;;;8.23;3.50;;;;;;;;;;5038350;28;20879;-62
2022/03/06 04:26:03;;;;;;;6.78;3.45;;;;;;;;;;5038811;28;20032;-62
2022/03/06 04:28:31;;;;;;;6.63;4.30;;;;;;;;;;5041125;28;21035;-60
2022/03/06 04:31:04;;;;;;;9.13;3.75;;;;;;;;;;5040907;28;20033;-61
2022/03/06 04:33:35;;;;;;;7.97;4.07;;;;;;;;;;5045573;28;20575;-62
2022/03/06 04:36:06;;;;;;;7.38;4.28;;;;;;;;;;5040188;28;20089;-62
2022/03/06 04:38:34;;;;;;;7.43;3.33;;;;;;;;;;5040635;28;20025;-61
2022/03/06 04:41:04;;;;;;;11.68;4.20;;;;;;;;;;5040795;28;20060;-61
2022/03/06 04:43:33;;;;;;;9.30;3.35;;;;;;;;;;5039295;28;20044;-63
2022/03/06 04:46:01;;;;;;;9.50;3.80;;;;;;;;;;5046014;28;20057;-63
2022/03/06 04:48:33;;;;;;;7.18;3.88;;;;;;;;;;5040690;28;20029;-62
2022/03/06 04:51:01;;;;;;;7.63;4.03;;;;;;;;;;5036705;28;21792;-62
2022/03/06 04:53:27;;;;;;;6.95;3.05;;;;;;;;;;5039481;28;21879;-62
2022/03/06 04:55:52;;;;;;;7.78;3.30;;;;;;;;;;5024275;28;20070;-60
2022/03/06 04:58:21;;;;;;;5.00;2.78;;;;;;;;;;5035456;28;20110;-62
2022/03/06 05:00:50;;;;;;;5.35;3.55;;;;;;;;;;5038294;28;20036;-61
2022/03/06 05:03:15;;;;;;;5.07;2.78;;;;;;;;;;5036095;28;20060;-62
2022/03/06 05:05:41;;;;;;;6.75;2.88;;;;;;;;;;5039935;28;20029;-62
2022/03/06 05:08:12;;;;;;;7.72;3.50;;;;;;;;;;5038993;28;20053;-62
2022/03/06 05:10:40;;;;;;;13.10;3.03;;;;;;;;;;5039757;28;20119;-62
2022/03/06 05:13:05;;;;;;;14.20;4.15;;;;;;;;;;5039685;28;20024;-63
2022/03/06 05:15:33;;;;;;;9.75;4.00;;;;;;;;;;5039955;28;20040;-61
2022/03/06 05:18:01;;;;;;;7.00;3.13;;;;;;;;;;5026395;28;20074;-61
2022/03/06 05:20:27;;;;;;;6.38;3.55;;;;;;;;;;5034312;28;20461;-61
2022/03/06 05:22:53;;;;;;;5.88;3.33;;;;;;;;;;5038580;28;20028;-61
2022/03/06 05:25:31;;;;;;;5.57;3.17;;;;;;;;;;5034515;28;20068;-64
2022/03/06 05:27:59;;;;;;;6.05;2.78;;;;;;;;;;5038929;28;20067;-63
2022/03/06 05:30:31;;;;;;;4.63;2.78;;;;;;;;;;5035695;28;20036;-62
2022/03/06 05:32:59;;;;;;;8.07;3.33;;;;;;;;;;5044040;28;20062;-62
2022/03/06 05:35:27;;;;;;;6.45;3.70;;;;;;;;;;5035741;28;20655;-61
2022/03/06 05:37:55;;;;;;;10.10;3.67;;;;;;;;;;5045187;28;20422;-62
2022/03/06 05:40:23;;;;;;;6.78;3.22;;;;;;;;;;5043461;28;20640;-62
2022/03/06 05:42:49;;;;;;;6.20;2.80;;;;;;;;;;5036830;28;20037;-62
2022/03/06 05:45:16;;;;;;;4.57;2.80;;;;;;;;;;5037452;28;20020;-62
2022/03/06 05:47:43;;;;;;;7.82;2.97;;;;;;;;;;5037277;28;20048;-62
2022/03/06 05:50:09;;;;;;;4.65;3.22;;;;;;;;;;5037579;28;20029;-62
2022/03/06 05:52:37;;;;;;;6.32;3.47;;;;;;;;;;5038722;28;20064;-64
2022/03/06 05:55:08;;;;;;;4.38;3.00;;;;;;;;;;5036431;28;20035;-62
2022/03/06 05:57:34;;;;;;;9.23;3.40;;;;;;;;;;5039819;28;20066;-61
2022/03/06 05:59:59;;;;;;;9.07;3.47;;;;;;;;;;5037610;28;20087;-62
2022/03/06 06:02:27;;;;;;;4.10;3.17;;;;;;;;;;5040157;28;20158;-62
2022/03/06 06:04:55;;;;;;;4.05;2.95;;;;;;;;;;5042677;28;20021;-62
2022/03/06 06:07:25;;;;;;;6.78;3.78;;;;;;;;;;5020780;28;20943;-63
2022/03/06 06:09:51;;;;;;;5.57;2.63;;;;;;;;;;5037241;28;20044;-63
2022/03/06 06:12:20;;;;;;;4.03;2.92;;;;;;;;;;5029583;28;20488;-62
2022/03/06 06:14:46;;;;;;;9.57;3.10;;;;;;;;;;5044410;28;20040;-62
2022/03/06 06:17:17;;;;;;;8.75;3.70;;;;;;;;;;5037183;28;20043;-62
2022/03/06 06:19:42;;;;;;;3.13;2.70;;;;;;;;;;5032690;28;20561;-62
2022/03/06 06:22:07;;;;;;;4.88;2.97;;;;;;;;;;5039482;28;20398;-64
2022/03/06 06:24:37;;;;;;;3.45;2.42;;;;;;;;;;5039975;28;20066;-63
2022/03/06 06:27:03;;;;;;;4.47;2.92;;;;;;;;;;5040081;28;20164;-63
2022/03/06 06:29:29;;;;;;;4.35;3.10;;;;;;;;;;5046688;28;20029;-63
2022/03/06 06:31:55;;;;;;;3.20;2.90;;;;;;;;;;5039638;28;20476;-63
2022/03/06 06:34:21;;;;;;;5.30;3.17;;;;;;;;;;5045021;28;20922;-64
2022/03/06 06:36:47;;;;;;;5.97;3.33;;;;;;;;;;5042825;28;20025;-65
2022/03/06 06:39:15;;;;;;;4.68;2.33;;;;;;;;;;5044478;28;20569;-65
2022/03/06 06:41:41;;;;;;;3.40;2.40;;;;;;;;;;5039203;28;20032;-63
2022/03/06 06:44:07;;;;;;;5.18;2.55;;;;;;;;;;5041815;28;20035;-64
2022/03/06 06:46:33;;;;;;;6.35;2.25;;;;;;;;;;5024690;28;20024;-64
2022/03/06 06:48:59;;;;;;;2.35;2.10;;;;;;;;;;5040796;28;20047;-63
2022/03/06 06:51:24;;;;;;;4.93;2.38;;;;;;;;;;5048131;28;21038;-63
2022/03/06 06:53:50;;;;;;;4.50;2.38;;;;;;;;;;5043430;28;20025;-63
2022/03/06 06:56:16;;;;;;;4.05;2.50;;;;;;;;;;5042276;28;20033;-64
2022/03/06 06:58:42;;;;;;;5.03;3.10;;;;;;;;;;5041828;28;20085;-64
2022/03/06 07:01:07;;;;;;;7.00;3.05;;;;;;;;;;5039228;28;20037;-62
2022/03/06 07:03:34;;;;;;;5.53;2.58;;;;;;;;;;5042453;28;20053;-63
2022/03/06 07:05:59;;;;;;;2.25;1.90;;;;;;;;;;5043152;28;20059;-63
2022/03/06 07:08:25;;;;;;;3.60;2.22;;;;;;;;;;5058070;28;20063;-63
2022/03/06 07:10:51;;;;;;;5.22;2.47;;;;;;;;;;5041184;28;20542;-63
2022/03/06 07:13:19;;;;;;;3.65;2.00;;;;;;;;;;5041828;28;20032;-63
2022/03/06 07:15:45;;;;;;;6.55;2.25;;;;;;;;;;5037723;28;20066;-63
2022/03/06 07:18:10;;;;;;;8.02;1.90;;;;;;;;;;5038024;28;20147;-64
2022/03/06 07:20:36;;;;;;;2.88;1.98;;;;;;;;;;5038793;28;20021;-63
2022/03/06 07:23:04;;;;;;;2.53;1.80;;;;;;;;;;5029402;28;20040;-64
2022/03/06 07:25:35;;;;;;;3.15;1.90;;;;;;;;;;5025632;28;20117;-64
2022/03/06 07:28:00;;;;;;;1.65;1.33;;;;;;;;;;5039410;28;20043;-64
2022/03/06 07:30:26;;;;;;;2.47;1.50;;;;;;;;;;5038932;28;20025;-66
2022/03/06 07:32:53;;;;;;;5.72;2.17;;;;;;;;;;5036192;28;20123;-63
2022/03/06 07:35:19;;;;;;;4.28;2.03;;;;;;;;;;5038927;28;20147;-64
2022/03/06 07:37:45;;;;;;;8.05;1.80;;;;;;;;;;5044128;28;20510;-64
2022/03/06 07:40:14;;;;;;;13.73;5.53;;;;;;;;;;5037868;28;20124;-63
2022/03/06 07:42:43;;;;;;;2.78;1.48;;;;;;;;;;5037473;28;20113;-63
2022/03/06 07:45:11;;;;;;;1.85;1.17;;;;;;;;;;5039365;28;20515;-63
2022/03/06 07:47:38;;;;;;;2.30;1.17;;;;;;;;;;5027207;28;20033;-63
2022/03/06 07:50:06;;;;;;;3.05;1.20;;;;;;;;;;5038687;28;21482;-63
2022/03/06 07:52:32;;;;;;;2.78;1.15;;;;;;;;;;5038434;28;20059;-61
2022/03/06 07:54:57;;;;;;;3.67;1.45;;;;;;;;;;5020127;28;20029;-63
2022/03/06 07:57:23;;;;;;;3.78;1.00;;;;;;;;;;5044856;28;20039;-63
2022/03/06 07:59:50;;;;;;;8.25;1.50;;;;;;;;;;5038774;28;20047;-62
2022/03/06 08:02:16;;;;;;;6.32;1.80;;;;;;;;;;5036117;28;20025;-62
2022/03/06 08:04:41;;;;;;;4.25;1.98;;;;;;;;;;5038880;28;20047;-62
2022/03/06 08:07:08;;;;;;;3.33;1.48;;;;;;;;;;5039878;28;20047;-61
2022/03/06 08:09:33;;;;;;;4.50;1.85;;;;;;;;;;5040127;28;20040;-64
2022/03/06 08:12:03;;;;;;;4.72;1.88;;;;;;;;;;5025075;28;20043;-62
2022/03/06 08:14:29;;;;;;;1.88;1.35;;;;;;;;;;5039352;28;20059;-62
2022/03/06 08:16:55;;;;;;;3.42;1.25;;;;;;;;;;5039839;28;20036;-62
2022/03/06 08:19:23;;;;;;;3.10;1.70;;;;;;;;;;5035076;28;20094;-62
2022/03/06 08:21:53;;;;;;;3.08;1.40;;;;;;;;;;5038102;28;20028;-62
2022/03/06 08:24:20;;;;;;;1.38;1.02;;;;;;;;;;5038512;28;20070;-62
2022/03/06 08:26:46;;;;;;;3.25;1.90;;;;;;;;;;5036014;28;21057;-62
2022/03/06 08:29:14;;;;;;;4.88;1.50;;;;;;;;;;5023308;28;20426;-61
2022/03/06 08:31:43;;;;;;;4.00;1.98;;;;;;;;;;5039140;28;20024;-63
2022/03/06 08:34:11;;;;;;;3.00;0.93;;;;;;;;;;5033845;28;20028;-61
2022/03/06 08:36:39;;;;;;;3.95;1.88;;;;;;;;;;5038872;28;20082;-61
2022/03/06 08:39:05;;;;;;;4.88;2.00;;;;;;;;;;5036395;28;20029;-61
2022/03/06 08:41:33;;;;;;;5.78;2.22;;;;;;;;;;5019179;28;21349;-61
2022/03/06 08:44:04;;;;;;;4.10;1.40;;;;;;;;;;5035426;28;20092;-60
2022/03/06 08:46:32;;;;;;;3.88;1.60;;;;;;;;;;5038021;28;20049;-60
2022/03/06 08:49:00;;;;;;;4.80;1.20;;;;;;;;;;5035552;28;20046;-61
2022/03/06 08:51:25;;;;;;;2.63;1.27;;;;;;;;;;5036114;28;20111;-60
2022/03/06 08:53:55;;;;;;;4.57;1.48;;;;;;;;;;5037164;28;20017;-60
2022/03/06 08:56:22;;;;;;;4.28;1.27;;;;;;;;;;5038277;28;20113;-60
2022/03/06 08:58:48;;;;;;;2.35;1.38;;;;;;;;;;5022816;28;20043;-62
2022/03/06 09:01:16;;;;;;;5.00;1.33;;;;;;;;;;5036604;28;20040;-62
2022/03/06 09:03:46;;;;;;;1.98;1.33;;;;;;;;;;5020753;28;20197;-61
2022/03/06 09:06:14;;;;;;;3.60;1.40;;;;;;;;;;5042962;28;20033;-60
2022/03/06 09:08:43;;;;;;;2.65;1.33;;;;;;;;;;5036605;28;20660;-62
2022/03/06 09:11:11;;;;;;;2.40;1.20;;;;;;;;;;5035176;28;20060;-60
2022/03/06 09:13:36;;;;;;;3.55;1.40;;;;;;;;;;5042747;28;20025;-60
2022/03/06 09:16:03;;;;;;;1.65;1.02;;;;;;;;;;5034992;28;20086;-60
2022/03/06 09:18:28;;;;;;;3.25;1.27;;;;;;;;;;5035163;28;20165;-62
2022/03/06 09:21:16;;;;;;;4.22;1.40;;;;;;;;;;5022738;28;20464;-61
2022/03/06 09:23:41;;;;;;;1.63;1.35;;;;;;;;;;5044715;28;20036;-60
2022/03/06 09:26:09;;;;;;;2.65;1.52;;;;;;;;;;5037820;28;20089;-60
2022/03/06 09:28:37;;;;;;;1.75;1.20;;;;;;;;;;5033469;28;20099;-61
2022/03/06 09:31:03;;;;;;;4.38;1.27;;;;;;;;;;5027941;28;20035;-61
2022/03/06 09:33:28;;;;;;;5.70;2.25;;;;;;;;;;5054158;28;20040;-61
2022/03/06 09:35:54;;;;;;;3.80;1.80;;;;;;;;;;5025268;28;20036;-61
2022/03/06 09:38:20;;;;;;;4.50;2.35;;;;;;;;;;5037214;28;20032;-61
2022/03/06 09:40:45;;;;;;;3.05;1.75;;;;;;;;;;5034016;28;20119;-61
2022/03/06 09:43:18;;;;;;;2.72;1.35;;;;;;;;;;5035445;28;20079;-61
2022/03/06 09:45:49;;;;;;;3.35;1.50;;;;;;;;;;5020571;28;20035;-61
2022/03/06 09:48:16;;;;;;;4.10;1.42;;;;;;;;;;5023625;28;20036;-61
2022/03/06 09:50:44;;;;;;;2.30;1.23;;;;;;;;;;5038326;28;20482;-61
2022/03/06 09:53:10;;;;;;;2.45;1.40;;;;;;;;;;5035076;28;22053;-61
2022/03/06 09:55:38;;;;;;;3.45;1.67;;;;;;;;;;5035169;28;20017;-61
2022/03/06 09:58:03;;;;;;;3.70;1.80;;;;;;;;;;5026115;28;20046;-61
2022/03/06 10:00:31;;;;;;;3.30;1.52;;;;;;;;;;5008590;28;20043;-61
2022/03/06 10:03:03;;;;;;;4.95;1.33;;;;;;;;;;5038102;28;20041;-61
2022/03/06 10:05:32;;;;;;;4.32;1.30;;;;;;;;;;5035688;28;20804;-61
2022/03/06 10:08:13;;;;;;;2.72;1.10;;;;;;;;;;5034749;28;20686;-61
2022/03/06 10:10:42;;;;;;;3.20;1.10;;;;;;;;;;5039510;28;20079;-61
2022/03/06 10:13:16;;;;;;;2.20;1.30;;;;;;;;;;5034759;28;20028;-60
2022/03/06 10:16:01;;;;;;;4.65;1.50;;;;;;;;;;5038072;28;20036;-61
2022/03/06 10:18:34;;;;;;;2.42;1.30;;;;;;;;;;5038619;28;20754;-62
2022/03/06 10:21:12;;;;;;;5.53;1.45;;;;;;;;;;5038139;28;20067;-62
2022/03/06 10:23:38;;;;;;;4.30;2.15;;;;;;;;;;5042002;28;21946;-61
2022/03/06 10:26:06;;;;;;;4.75;1.60;;;;;;;;;;5039154;28;20024;-62
2022/03/06 10:28:41;;;;;;;1.25;1.15;;;;;;;;;;5036092;28;22049;-63
2022/03/06 10:31:07;;;;;;;5.00;1.23;;;;;;;;;;5038815;28;20569;-61
2022/03/06 10:33:32;;;;;;;7.60;1.50;;;;;;;;;;5023991;28;20126;-61
2022/03/06 10:36:01;;;;;;;2.17;1.08;;;;;;;;;;5034599;28;20020;-61
2022/03/06 10:38:28;;;;;;;4.40;1.40;;;;;;;;;;5041085;28;20037;-61
2022/03/06 10:40:57;;;;;;;3.10;1.00;;;;;;;;;;5044012;28;20055;-62
2022/03/06 10:43:28;;;;;;;1.48;1.23;;;;;;;;;;5034615;28;20039;-63
2022/03/06 10:46:05;;;;;;;3.13;0.90;;;;;;;;;;5036968;28;20049;-61
2022/03/06 10:48:33;;;;;;;1.63;1.10;;;;;;;;;;5037511;28;20040;-62
2022/03/06 10:51:08;;;;;;;1.98;1.00;;;;;;;;;;5028818;28;20039;-62
2022/03/06 10:53:36;;;;;;;2.03;1.00;;;;;;;;;;5040698;28;20024;-61
2022/03/06 10:56:09;;;;;;;3.30;1.30;;;;;;;;;;5039772;28;20479;-61
2022/03/06 10:58:35;;;;;;;6.00;1.50;;;;;;;;;;5037995;28;20033;-61
2022/03/06 11:01:02;;;;;;;2.50;0.95;;;;;;;;;;5037265;28;20518;-62
2022/03/06 11:03:29;;;;;;;1.67;1.13;;;;;;;;;;5042235;28;20040;-61
2022/03/06 11:05:57;;;;;;;4.22;1.10;;;;;;;;;;5040029;28;20028;-62
2022/03/06 11:08:24;;;;;;;1.65;1.02;;;;;;;;;;5038257;28;20074;-61
2022/03/06 11:10:56;;;;;;;3.55;1.67;;;;;;;;;;5037724;28;20033;-63
2022/03/06 11:13:24;;;;;;;2.58;1.20;;;;;;;;;;5038486;28;20795;-62
2022/03/06 11:15:50;;;;;;;3.92;1.50;;;;;;;;;;5037421;28;20032;-62
2022/03/06 11:18:15;;;;;;;4.22;1.33;;;;;;;;;;5043054;28;20534;-62
2022/03/06 11:20:46;;;;;;;5.05;1.63;;;;;;;;;;5037265;28;20032;-62
2022/03/06 11:23:16;;;;;;;2.90;0.82;;;;;;;;;;5039460;28;20028;-62
2022/03/06 11:26:02;;;;;;;2.65;1.48;;;;;;;;;;5044158;28;20127;-62
2022/03/06 11:28:30;;;;;;;4.60;1.20;;;;;;;;;;5029545;28;20072;-61
2022/03/06 11:30:59;;;;;;;3.80;1.40;;;;;;;;;;5036804;28;20052;-62
2022/03/06 11:33:25;;;;;;;2.03;0.93;;;;;;;;;;5039928;28;20031;-61
2022/03/06 11:35:51;;;;;;;6.30;2.50;;;;;;;;;;5037981;28;20028;-61
2022/03/06 11:38:22;;;;;;;3.83;2.35;;;;;;;;;;5009070;28;20136;-61
2022/03/06 11:40:50;;;;;;;4.20;2.05;;;;;;;;;;5039069;28;20041;-61
2022/03/06 11:43:28;;;;;;;3.20;1.38;;;;;;;;;;5044602;28;20071;-61
2022/03/06 11:46:16;;;;;;;3.03;1.77;;;;;;;;;;5035388;28;20037;-60
2022/03/06 11:48:41;;;;;;;6.53;2.55;;;;;;;;;;5035628;28;20124;-60
2022/03/06 11:51:22;;;;;;;2.33;1.13;;;;;;;;;;5035782;28;20040;-60
2022/03/06 11:53:54;;;;;;;2.20;1.10;;;;;;;;;;5040180;28;20032;-60
2022/03/06 11:56:38;;;;;;;4.10;1.13;;;;;;;;;;5045373;28;20025;-62
2022/03/06 11:59:06;;;;;;;;;;;;;;;;;;5036292;28;20028;-61
2022/03/06 12:01:37;;;;;;;2.60;1.38;;;;;;;;;;5038655;28;19962;-62
2022/03/06 12:04:12;;;;;;;3.03;1.38;;;;;;;;;;5036842;28;20044;-60
2022/03/06 12:06:41;;;;;;;1.42;1.10;;;;;;;;;;5039100;28;20086;-60
2022/03/06 12:09:13;;;;;;;3.25;1.42;;;;;;;;;;5033846;28;20341;-61
2022/03/06 12:11:41;;;;;;;4.50;1.05;;;;;;;;;;5037788;28;20029;-61
2022/03/06 12:14:17;;;;;;;9.23;1.40;;;;;;;;;;5036203;28;20021;-60
2022/03/06 12:17:10;;;;;;;5.30;1.40;;;;;;;;;;5039688;28;20475;-61
2022/03/06 12:19:42;;;;;;;6.13;1.55;;;;;;;;;;5044291;28;20604;-61
2022/03/06 12:22:09;;;;;;;1.60;1.00;;;;;;;;;;5035080;28;20480;-61
2022/03/06 12:24:35;;;;;;;3.83;1.83;;;;;;;;;;5025794;28;20053;-61
2022/03/06 12:27:12;;;;;;;2.70;1.35;;;;;;;;;;5039827;28;20032;-61
2022/03/06 12:29:52;;;;;;;2.33;1.20;;;;;;;;;;5042835;28;20110;-62
2022/03/06 12:32:38;;;;;;;3.00;1.33;;;;;;;;;;5037439;28;20029;-61
2022/03/06 12:35:08;;;;;;;2.85;1.20;;;;;;;;;;5036234;28;20040;-60
2022/03/06 12:37:41;;;;;;;1.63;1.10;;;;;;;;;;5022413;28;20110;-61
2022/03/06 12:40:11;;;;;;;4.22;1.40;;;;;;;;;;5036671;28;20025;-62
2022/03/06 12:42:37;;;;;;;2.75;1.15;;;;;;;;;;5044127;28;20570;-61
2022/03/06 12:45:07;;;;;;;2.60;1.00;;;;;;;;;;5036104;28;20093;-61
2022/03/06 12:47:34;;;;;;;1.50;1.15;;;;;;;;;;5034599;28;20033;-61
2022/03/06 12:49:59;;;;;;;3.92;1.08;;;;;;;;;;5035804;28;20025;-61
2022/03/06 12:52:26;;;;;;;1.67;1.17;;;;;;;;;;5036214;28;20037;-61
2022/03/06 12:54:52;;;;;;;4.35;1.17;;;;;;;;;;5035966;28;21603;-61
2022/03/06 12:57:21;;;;;;;3.75;1.00;;;;;;;;;;5043681;28;20642;-61
2022/03/06 12:59:48;;;;;;;6.03;1.35;;;;;;;;;;5039833;28;20029;-61
2022/03/06 13:02:20;;;;;;;2.80;1.08;;;;;;;;;;5036809;28;20051;-61
2022/03/06 13:04:49;;;;;;;5.47;1.48;;;;;;;;;;5037087;28;20949;-61
2022/03/06 13:07:15;;;;;;;2.78;1.48;;;;;;;;;;5026765;28;20029;-61
2022/03/06 13:09:41;;;;;;;1.48;0.75;;;;;;;;;;5043504;28;20086;-61
2022/03/06 13:12:07;;;;;;;1.63;0.80;;;;;;;;;;5025861;28;20032;-61
2022/03/06 13:14:36;;;;;;;2.08;1.00;;;;;;;;;;5035209;28;20033;-61
2022/03/06 13:17:06;;;;;;;2.88;1.27;;;;;;;;;;5041962;28;20037;-61
2022/03/06 13:19:38;;;;;;;4.40;1.42;;;;;;;;;;5037242;28;20048;-61
2022/03/06 13:22:05;;;;;;;3.40;1.90;;;;;;;;;;5043671;28;20035;-62
2022/03/06 13:24:36;;;;;;;5.25;1.83;;;;;;;;;;5034575;28;20025;-61
2022/03/06 13:27:02;;;;;;;1.73;1.10;;;;;;;;;;5036273;28;20076;-61
2022/03/06 13:29:28;;;;;;;4.80;1.33;;;;;;;;;;5036332;28;20191;-60
2022/03/06 13:31:54;;;;;;;3.85;1.38;;;;;;;;;;5035304;28;20044;-62
2022/03/06 13:34:21;;;;;;;2.97;1.25;;;;;;;;;;5036225;28;20476;-61
2022/03/06 13:36:47;;;;;;;3.90;1.60;;;;;;;;;;5036596;28;20032;-62
2022/03/06 13:39:16;;;;;;;2.22;1.05;;;;;;;;;;5039968;28;20491;-61
2022/03/06 13:41:49;;;;;;;1.85;1.13;;;;;;;;;;5036576;28;20028;-62
2022/03/06 13:44:15;;;;;;;3.75;1.48;;;;;;;;;;5035422;28;20534;-63
2022/03/06 13:46:41;;;;;;;3.35;1.33;;;;;;;;;;5035013;28;20486;-61
2022/03/06 13:49:11;;;;;;;3.78;1.90;;;;;;;;;;5035975;28;20041;-61
2022/03/06 13:51:37;;;;;;;3.17;1.48;;;;;;;;;;5041381;28;20037;-61
2022/03/06 13:54:05;;;;;;;4.35;1.52;;;;;;;;;;5034936;28;20029;-61
2022/03/06 13:56:33;;;;;;;8.95;1.67;;;;;;;;;;5036354;28;20037;-61
2022/03/06 13:58:59;;;;;;;3.55;1.35;;;;;;;;;;5038053;28;20025;-61
2022/03/06 14:01:28;;;;;;;5.18;1.80;;;;;;;;;;5035559;28;20036;-63
2022/03/06 14:03:57;;;;;;;1.33;1.08;;;;;;;;;;5037184;28;20025;-63
2022/03/06 14:06:31;;;;;;;10.32;1.30;;;;;;;;;;5036196;28;20106;-62
2022/03/06 14:08:59;;;;;;;3.90;1.73;;;;;;;;;;5035641;28;20092;-62
2022/03/06 14:11:26;;;;;;;2.25;1.05;;;;;;;;;;5036261;28;20559;-62
2022/03/06 14:13:56;;;;;;;5.03;1.40;;;;;;;;;;5035492;28;20020;-63
2022/03/06 14:16:21;;;;;;;2.33;1.00;;;;;;;;;;5034202;28;20046;-64
2022/03/06 14:18:53;;;;;;;3.83;1.30;;;;;;;;;;5025088;28;20033;-62
2022/03/06 14:21:19;;;;;;;2.30;1.10;;;;;;;;;;5033894;28;20111;-63
2022/03/06 14:23:50;;;;;;;3.05;1.65;;;;;;;;;;5035485;28;21582;-62
2022/03/06 14:26:18;;;;;;;3.08;1.05;;;;;;;;;;5039628;28;20051;-62
2022/03/06 14:28:51;;;;;;;4.40;1.45;;;;;;;;;;5038906;28;20062;-62
2022/03/06 14:31:20;;;;;;;1.92;1.20;;;;;;;;;;5040069;28;20132;-62
2022/03/06 14:33:46;;;;;;;4.55;1.25;;;;;;;;;;5037260;28;20139;-62
2022/03/06 14:36:12;;;;;;;3.17;1.20;;;;;;;;;;5040125;28;20682;-63
2022/03/06 14:38:37;;;;;;;7.25;2.20;;;;;;;;;;5037841;28;20089;-60
2022/03/06 14:41:03;;;;;;;4.50;1.27;;;;;;;;;;5041537;28;20083;-61
2022/03/06 14:43:29;;;;;;;3.30;1.45;;;;;;;;;;5038019;28;20083;-61
2022/03/06 14:45:55;;;;;;;3.28;1.05;;;;;;;;;;5040897;28;20113;-61
2022/03/06 14:48:21;;;;;;;1.80;1.20;;;;;;;;;;5041762;28;20642;-62
2022/03/06 14:50:46;;;;;;;2.72;1.15;;;;;;;;;;5036393;28;20032;-61
2022/03/06 14:53:15;;;;;;;2.78;1.17;;;;;;;;;;5039433;28;20017;-61